createdAt,value
2018-04-14T00:00:52.739Z,11.73
2018-04-14T00:03:20.329Z,11.87
2018-04-14T00:05:47.958Z,12.00
2018-04-14T00:08:16.104Z,12.80
2018-04-14T00:10:43.760Z,12.10
2018-04-14T00:13:11.496Z,11.30
2018-04-14T00:15:39.153Z,12.40
2018-04-14T00:18:06.800Z,12.77
2018-04-14T00:20:34.873Z,13.10
2018-04-14T00:23:02.521Z,12.73
2018-04-14T00:25:30.107Z,13.27
2018-04-14T00:27:57.772Z,13.10
2018-04-14T00:30:25.358Z,13.20
2018-04-14T00:32:53.000Z,13.37
2018-04-14T00:35:21.969Z,13.10
2018-04-14T00:37:49.605Z,12.93
2018-04-14T00:40:17.180Z,14.30
2018-04-14T00:42:44.940Z,13.17
2018-04-14T00:45:12.532Z,13.77
2018-04-14T00:47:40.214Z,13.70
2018-04-14T00:50:07.961Z,12.20
2018-04-14T00:52:35.611Z,13.40
2018-04-14T00:55:03.269Z,13.10
2018-04-14T00:57:30.953Z,13.07
2018-04-14T00:59:58.547Z,13.77
2018-04-14T01:02:26.208Z,13.20
2018-04-14T01:04:53.921Z,13.47
2018-04-14T01:07:21.547Z,13.10
2018-04-14T01:09:49.141Z,13.30
2018-04-14T01:12:17.556Z,13.27
2018-04-14T01:14:45.136Z,13.43
2018-04-14T01:17:12.788Z,13.37
2018-04-14T01:19:40.559Z,13.20
2018-04-14T01:22:08.227Z,12.20
2018-04-14T01:24:35.899Z,12.00
2018-04-14T01:27:03.553Z,12.80
2018-04-14T01:29:31.151Z,12.37
2018-04-14T01:31:58.744Z,13.10
2018-04-14T01:34:26.476Z,11.87
2018-04-14T01:36:54.241Z,11.40
2018-04-14T01:39:21.829Z,11.60
2018-04-14T01:41:49.580Z,12.10
2018-04-14T01:44:17.787Z,12.20
2018-04-14T01:46:45.471Z,11.73
2018-04-14T01:49:13.202Z,12.13
2018-04-14T01:51:40.781Z,12.53
2018-04-14T01:54:08.357Z,12.00
2018-04-14T01:56:35.989Z,11.97
2018-04-14T01:59:03.607Z,12.17
2018-04-14T02:01:31.245Z,11.00
2018-04-14T02:03:59.012Z,11.57
2018-04-14T02:06:26.600Z,11.93
2018-04-14T02:08:54.203Z,11.70
2018-04-14T02:11:21.868Z,11.33
2018-04-14T02:13:49.532Z,12.10
2018-04-14T02:16:17.124Z,11.47
2018-04-14T02:18:44.842Z,11.60
2018-04-14T02:21:12.419Z,11.23
2018-04-14T02:23:40.063Z,11.57
2018-04-14T02:26:07.741Z,10.43
2018-04-14T02:28:35.323Z,10.97
2018-04-14T02:31:02.899Z,12.13
2018-04-14T02:33:30.520Z,12.37
2018-04-14T02:35:58.137Z,11.43
2018-04-14T02:38:26.255Z,11.93
2018-04-14T02:40:54.041Z,12.30
2018-04-14T02:43:21.652Z,12.60
2018-04-14T02:45:49.235Z,12.13
2018-04-14T02:48:16.871Z,11.33
2018-04-14T02:50:44.460Z,11.70
2018-04-14T02:53:12.051Z,12.20
2018-04-14T02:55:39.740Z,12.30
2018-04-14T02:58:07.388Z,12.63
2018-04-14T03:00:34.979Z,11.60
2018-04-14T03:03:02.767Z,11.57
2018-04-14T03:05:30.383Z,12.00
2018-04-14T03:07:57.957Z,12.27
2018-04-14T03:10:25.751Z,12.10
2018-04-14T03:12:53.341Z,12.27
2018-04-14T03:15:20.923Z,12.33
2018-04-14T03:17:48.616Z,12.60
2018-04-14T03:20:16.211Z,12.10
2018-04-14T03:22:43.803Z,11.50
2018-04-14T03:25:11.590Z,11.97
2018-04-14T03:27:39.237Z,12.17
2018-04-14T03:30:06.864Z,13.37
2018-04-14T03:32:34.565Z,11.87
2018-04-14T03:35:02.206Z,12.80
2018-04-14T03:37:29.794Z,12.43
2018-04-14T03:39:57.715Z,13.53
2018-04-14T03:42:25.300Z,12.80
2018-04-14T03:44:52.879Z,12.80
2018-04-14T03:47:20.663Z,12.80
2018-04-14T03:49:48.256Z,13.40
2018-04-14T03:52:15.902Z,12.60
2018-04-14T03:54:43.547Z,14.57
2018-04-14T03:57:11.132Z,13.17
2018-04-14T03:59:38.716Z,13.80
2018-04-14T04:02:06.404Z,14.00
2018-04-14T04:04:33.995Z,13.50
2018-04-14T04:07:01.600Z,13.33
2018-04-14T04:09:29.229Z,13.40
2018-04-14T04:11:56.817Z,14.33
2018-04-14T04:14:24.405Z,14.47
2018-04-14T04:16:52.110Z,14.73
2018-04-14T04:19:31.524Z,15.47
2018-04-14T04:22:10.917Z,16.33
2018-04-14T04:24:50.348Z,15.97
2018-04-14T04:27:18.120Z,15.20
2018-04-14T04:29:45.768Z,14.93
2018-04-14T04:32:13.347Z,14.90
2018-04-14T04:34:41.098Z,13.77
2018-04-14T04:37:08.713Z,13.37
2018-04-14T04:39:36.372Z,13.67
2018-04-14T04:42:04.239Z,13.23
2018-04-14T04:44:31.887Z,13.47
2018-04-14T04:46:59.528Z,13.57
2018-04-14T04:49:27.171Z,13.63
2018-04-14T04:51:54.810Z,13.10
2018-04-14T04:54:22.452Z,12.67
2018-04-14T04:56:50.248Z,12.63
2018-04-14T04:59:17.957Z,13.37
2018-04-14T05:01:46.213Z,13.10
2018-04-14T05:04:13.839Z,14.43
2018-04-14T05:06:41.435Z,14.37
2018-04-14T05:09:09.021Z,13.67
2018-04-14T05:11:36.711Z,13.37
2018-04-14T05:14:04.381Z,13.53
2018-04-14T05:16:31.998Z,14.90
2018-04-14T05:18:59.723Z,15.10
2018-04-14T05:21:27.349Z,15.20
2018-04-14T05:23:54.945Z,15.00
2018-04-14T05:26:22.580Z,14.43
2018-04-14T05:28:50.188Z,13.33
2018-04-14T05:31:17.772Z,13.80
2018-04-14T05:33:45.561Z,12.20
2018-04-14T05:36:13.148Z,12.27
2018-04-14T05:38:40.734Z,13.93
2018-04-14T05:41:08.448Z,12.43
2018-04-14T05:43:36.218Z,12.40
2018-04-14T05:46:03.897Z,11.60
2018-04-14T05:48:31.530Z,11.57
2018-04-14T05:50:59.682Z,11.40
2018-04-14T05:53:27.302Z,11.07
2018-04-14T05:55:54.996Z,10.77
2018-04-14T05:58:22.701Z,11.67
2018-04-14T06:00:50.380Z,10.73
2018-04-14T06:03:18.023Z,10.40
2018-04-14T06:05:45.601Z,9.80
2018-04-14T06:08:13.187Z,10.20
2018-04-14T06:10:40.819Z,10.20
2018-04-14T06:13:08.460Z,9.60
2018-04-14T06:15:36.043Z,10.07
2018-04-14T06:18:03.732Z,10.33
2018-04-14T06:20:31.327Z,10.27
2018-04-14T06:22:58.908Z,10.17
2018-04-14T06:25:26.585Z,10.40
2018-04-14T06:27:54.178Z,10.60
2018-04-14T06:30:21.800Z,10.57
2018-04-14T06:32:49.519Z,10.70
2018-04-14T06:35:17.091Z,10.90
2018-04-14T06:37:44.682Z,10.67
2018-04-14T06:40:12.312Z,10.57
2018-04-14T06:42:39.892Z,10.43
2018-04-14T06:45:07.719Z,10.67
2018-04-14T06:47:35.518Z,10.50
2018-04-14T06:50:03.731Z,11.13
2018-04-14T06:52:31.373Z,11.00
2018-04-14T06:54:59.024Z,10.20
2018-04-14T06:57:26.604Z,10.63
2018-04-14T06:59:54.240Z,10.50
2018-04-14T07:02:21.892Z,10.77
2018-04-14T07:04:50.392Z,11.20
2018-04-14T07:07:17.949Z,9.50
2018-04-14T07:09:45.679Z,10.70
2018-04-14T07:12:13.267Z,10.53
2018-04-14T07:14:40.860Z,10.07
2018-04-14T07:17:08.480Z,10.27
2018-04-14T07:19:36.881Z,9.90
2018-04-14T07:22:04.473Z,11.40
2018-04-14T07:24:32.280Z,9.63
2018-04-14T07:26:59.878Z,9.93
2018-04-14T07:29:27.526Z,10.60
2018-04-14T07:31:55.197Z,10.30
2018-04-14T07:34:22.875Z,10.30
2018-04-14T07:36:50.525Z,9.70
2018-04-14T07:39:18.292Z,10.33
2018-04-14T07:41:45.876Z,10.37
2018-04-14T07:44:13.488Z,11.00
2018-04-14T07:46:42.088Z,10.97
2018-04-14T07:49:09.674Z,9.90
2018-04-14T07:51:37.324Z,11.13
2018-04-14T07:54:05.030Z,10.50
2018-04-14T07:56:32.621Z,11.13
2018-04-14T07:59:00.191Z,10.77
2018-04-14T08:01:28.095Z,10.20
2018-04-14T08:03:55.675Z,10.13
2018-04-14T08:06:23.269Z,10.53
2018-04-14T08:08:50.962Z,11.50
2018-04-14T08:11:18.552Z,10.73
2018-04-14T08:13:46.128Z,11.57
2018-04-14T08:16:13.851Z,11.10
2018-04-14T08:18:41.436Z,11.20
2018-04-14T08:21:09.011Z,11.60
2018-04-14T08:23:37.460Z,72.67
2018-04-14T08:26:05.825Z,26.57
2018-04-14T08:28:33.920Z,12.27
2018-04-14T08:31:02.192Z,11.77
2018-04-14T08:33:29.813Z,14.90
2018-04-14T08:35:58.104Z,14.03
2018-04-14T08:38:25.819Z,11.77
2018-04-14T08:40:53.678Z,11.43
2018-04-14T08:43:21.324Z,12.00
2018-04-14T08:45:48.980Z,12.17
2018-04-14T08:48:17.287Z,12.30
2018-04-14T08:50:44.947Z,12.17
2018-04-14T08:53:12.584Z,12.03
2018-04-14T08:55:40.168Z,12.10
2018-04-14T08:58:07.744Z,11.57
2018-04-14T09:00:35.379Z,11.67
2018-04-14T09:03:02.974Z,12.50
2018-04-14T09:05:30.547Z,12.67
2018-04-14T09:07:58.191Z,12.07
2018-04-14T09:10:25.790Z,12.50
2018-04-14T09:12:53.374Z,12.17
2018-04-14T09:15:21.007Z,12.63
2018-04-14T09:17:48.662Z,11.77
2018-04-14T09:20:16.308Z,12.37
2018-04-14T09:22:44.016Z,12.80
2018-04-14T09:25:11.676Z,11.30
2018-04-14T09:27:39.261Z,11.70
2018-04-14T09:30:07.548Z,11.50
2018-04-14T09:32:35.128Z,11.83
2018-04-14T09:35:02.734Z,12.13
2018-04-14T09:37:30.432Z,11.83
2018-04-14T09:39:58.032Z,11.13
2018-04-14T09:42:25.705Z,11.30
2018-04-14T09:44:53.345Z,11.13
2018-04-14T09:47:20.935Z,12.17
2018-04-14T09:49:48.688Z,12.03
2018-04-14T09:52:16.503Z,12.53
2018-04-14T09:54:44.146Z,11.43
2018-04-14T09:57:11.779Z,11.20
2018-04-14T09:59:40.310Z,11.13
2018-04-14T10:02:10.934Z,11.10
2018-04-14T10:04:38.523Z,11.87
2018-04-14T10:07:06.210Z,10.77
2018-04-14T10:09:33.791Z,12.13
2018-04-14T10:12:01.380Z,10.87
2018-04-14T10:14:29.132Z,11.40
2018-04-14T10:16:56.804Z,11.18
2018-04-14T10:19:24.392Z,11.25
2018-04-14T10:21:52.035Z,11.20
2018-04-14T10:24:19.623Z,10.50
2018-04-14T10:26:47.278Z,11.40
2018-04-14T10:29:14.984Z,10.98
2018-04-14T10:31:42.632Z,10.52
2018-04-14T10:34:10.221Z,11.85
2018-04-14T10:36:37.965Z,11.20
2018-04-14T10:39:06.328Z,10.68
2018-04-14T10:41:33.921Z,10.45
2018-04-14T10:44:01.560Z,11.38
2018-04-14T10:46:29.228Z,11.23
2018-04-14T10:48:56.836Z,11.30
2018-04-14T10:51:24.700Z,11.43
2018-04-14T10:53:52.295Z,10.90
2018-04-14T10:56:19.974Z,11.45
2018-04-14T10:58:47.615Z,10.43
2018-04-14T11:01:15.226Z,11.30
2018-04-14T11:03:42.842Z,10.45
2018-04-14T11:06:10.578Z,10.38
2018-04-14T11:08:38.177Z,10.38
2018-04-14T11:17:03.333Z,10.27
2018-04-14T11:19:30.924Z,10.20
2018-04-14T11:21:58.525Z,9.95
2018-04-14T11:24:26.152Z,10.27
2018-04-14T11:26:53.800Z,9.65
2018-04-14T11:29:21.489Z,10.15
2018-04-14T11:31:49.119Z,9.57
2018-04-14T11:34:16.777Z,10.00
2018-04-14T11:36:44.369Z,10.18
2018-04-14T11:39:12.088Z,11.85
2018-04-14T11:41:39.664Z,9.52
2018-04-14T11:44:07.249Z,10.38
2018-04-14T11:46:34.952Z,9.85
2018-04-14T11:49:02.547Z,10.82
2018-04-14T11:51:30.271Z,10.55
2018-04-14T11:53:57.975Z,10.57
2018-04-14T11:56:25.568Z,10.20
2018-04-14T11:58:53.155Z,10.35
2018-04-14T12:01:20.800Z,10.50
2018-04-14T12:03:48.389Z,10.35
2018-04-14T12:06:16.052Z,10.90
2018-04-14T12:08:43.784Z,9.02
2018-04-14T12:11:11.378Z,10.52
2018-04-14T12:13:39.033Z,9.35
2018-04-14T12:16:06.825Z,9.75
2018-04-14T12:18:34.404Z,9.48
2018-04-14T12:21:02.065Z,9.40
2018-04-14T12:23:29.816Z,10.25
2018-04-14T12:25:57.457Z,9.85
2018-04-14T12:28:25.057Z,9.85
2018-04-14T12:30:52.764Z,9.00
2018-04-14T12:33:20.364Z,9.15
2018-04-14T12:35:48.013Z,9.82
2018-04-14T12:38:15.717Z,9.20
2018-04-14T12:40:43.300Z,9.68
2018-04-14T12:43:10.897Z,8.98
2018-04-14T12:45:38.640Z,9.30
2018-04-14T12:48:06.890Z,9.38
2018-04-14T12:50:34.540Z,9.85
2018-04-14T12:53:02.413Z,10.48
2018-04-14T12:55:30.316Z,10.18
2018-04-14T12:57:57.944Z,9.63
2018-04-14T13:00:25.598Z,10.93
2018-04-14T13:02:53.266Z,9.73
2018-04-14T13:05:20.919Z,10.30
2018-04-14T13:07:48.611Z,10.27
2018-04-14T13:10:16.205Z,10.57
2018-04-14T13:12:43.793Z,10.50
2018-04-14T13:15:11.428Z,9.60
2018-04-14T13:17:39.012Z,9.43
2018-04-14T13:20:06.611Z,9.23
2018-04-14T13:22:34.402Z,9.75
2018-04-14T13:25:02.019Z,9.50
2018-04-14T13:27:29.673Z,8.77
2018-04-14T13:29:57.416Z,8.02
2018-04-14T13:32:25.031Z,8.73
2018-04-14T13:34:52.614Z,9.05
2018-04-14T13:37:20.332Z,9.10
2018-04-14T13:39:47.976Z,8.88
2018-04-14T13:42:15.640Z,8.70
2018-04-14T13:44:43.305Z,9.35
2018-04-14T13:47:11.842Z,9.23
2018-04-14T13:49:39.498Z,9.27
2018-04-14T13:52:07.301Z,9.45
2018-04-14T13:54:35.441Z,9.47
2018-04-14T13:57:03.403Z,9.20
2018-04-14T13:59:31.148Z,9.10
2018-04-14T14:01:58.794Z,9.00
2018-04-14T14:04:26.501Z,9.63
2018-04-14T14:06:54.219Z,9.70
2018-04-14T14:09:21.815Z,9.45
2018-04-14T14:11:49.400Z,9.23
2018-04-14T14:14:17.119Z,9.20
2018-04-14T14:16:44.707Z,9.83
2018-04-14T14:19:12.326Z,9.23
2018-04-14T14:21:39.973Z,9.47
2018-04-14T14:24:07.558Z,9.27
2018-04-14T14:26:35.168Z,9.00
2018-04-14T14:29:02.978Z,9.05
2018-04-14T14:31:30.633Z,9.67
2018-04-14T14:33:58.400Z,9.30
2018-04-14T14:36:26.111Z,8.80
2018-04-14T14:38:53.753Z,8.67
2018-04-14T14:41:22.900Z,8.50
2018-04-14T14:43:50.632Z,9.03
2018-04-14T14:46:18.288Z,8.97
2018-04-14T14:48:45.946Z,9.47
2018-04-14T14:51:13.589Z,9.50
2018-04-14T14:53:41.165Z,9.00
2018-04-14T14:56:08.837Z,9.30
2018-04-14T14:58:36.472Z,9.53
2018-04-14T15:01:04.145Z,10.10
2018-04-14T15:03:31.750Z,9.17
2018-04-14T15:05:59.441Z,9.57
2018-04-14T15:08:27.101Z,9.50
2018-04-14T15:10:54.684Z,8.67
2018-04-14T15:13:22.382Z,9.30
2018-04-14T15:15:50.024Z,10.13
2018-04-14T15:18:17.669Z,9.27
2018-04-14T15:20:45.291Z,10.13
2018-04-14T15:23:12.865Z,9.43
2018-04-14T15:25:40.453Z,9.57
2018-04-14T15:28:08.087Z,9.57
2018-04-14T15:30:35.729Z,9.17
2018-04-14T15:33:03.322Z,9.33
2018-04-14T15:35:31.440Z,9.20
2018-04-14T15:37:59.763Z,10.07
2018-04-14T15:40:27.411Z,10.23
2018-04-14T15:42:55.105Z,9.50
2018-04-14T15:45:22.827Z,10.37
2018-04-14T15:47:50.474Z,9.80
2018-04-14T15:50:18.265Z,9.40
2018-04-14T15:52:45.853Z,10.37
2018-04-14T15:55:13.512Z,10.17
2018-04-14T15:57:41.553Z,11.13
2018-04-14T16:00:09.156Z,11.03
2018-04-14T16:02:36.740Z,11.57
2018-04-14T16:05:04.394Z,9.77
2018-04-14T16:07:32.064Z,9.40
2018-04-14T16:09:59.640Z,8.63
2018-04-14T16:12:27.899Z,9.57
2018-04-14T16:14:55.478Z,9.57
2018-04-14T16:17:23.088Z,10.33
2018-04-14T16:19:50.808Z,9.93
2018-04-14T16:22:18.477Z,9.50
2018-04-14T16:24:46.108Z,9.63
2018-04-14T16:27:13.731Z,9.30
2018-04-14T16:29:41.317Z,9.73
2018-04-14T16:32:09.621Z,8.97
2018-04-14T16:34:37.347Z,8.50
2018-04-14T16:37:05.004Z,8.80
2018-04-14T16:39:32.588Z,9.00
2018-04-14T16:42:00.296Z,8.67
2018-04-14T16:44:27.885Z,8.97
2018-04-14T16:46:55.613Z,8.40
2018-04-14T16:49:23.267Z,9.30
2018-04-14T16:51:50.905Z,9.73
2018-04-14T16:54:18.654Z,9.40
2018-04-14T16:56:46.414Z,9.20
2018-04-14T16:59:14.789Z,8.80
2018-04-14T17:01:42.386Z,9.37
2018-04-14T17:04:10.085Z,9.33
2018-04-14T17:06:37.791Z,8.93
2018-04-14T17:09:05.564Z,8.43
2018-04-14T17:11:33.273Z,8.33
2018-04-14T17:14:00.866Z,9.23
2018-04-14T17:16:28.450Z,8.37
2018-04-14T17:18:56.111Z,8.80
2018-04-14T17:21:24.481Z,9.03
2018-04-14T17:23:52.129Z,8.93
2018-04-14T17:26:19.779Z,8.57
2018-04-14T17:28:47.359Z,8.70
2018-04-14T17:31:15.016Z,9.17
2018-04-14T17:33:42.650Z,9.00
2018-04-14T17:36:10.232Z,8.63
2018-04-14T17:38:37.808Z,8.23
2018-04-14T17:41:05.459Z,8.37
2018-04-14T17:43:33.118Z,8.60
2018-04-14T17:46:00.723Z,7.87
2018-04-14T17:48:28.447Z,8.50
2018-04-14T17:50:56.105Z,8.53
2018-04-14T17:53:23.716Z,9.03
2018-04-14T17:55:51.489Z,8.77
2018-04-14T17:58:19.061Z,8.97
2018-04-14T18:00:46.892Z,8.37
2018-04-14T18:03:14.594Z,8.80
2018-04-14T18:05:42.199Z,8.53
2018-04-14T18:08:09.803Z,9.13
2018-04-14T18:10:37.509Z,8.83
2018-04-14T18:13:05.920Z,9.20
2018-04-14T18:15:33.485Z,8.57
2018-04-14T18:18:01.210Z,8.93
2018-04-14T18:20:28.801Z,8.93
2018-04-14T18:22:56.432Z,9.50
2018-04-14T18:25:24.241Z,9.13
2018-04-14T18:27:51.925Z,9.70
2018-04-14T18:30:19.877Z,9.70
2018-04-14T18:32:47.624Z,10.57
2018-04-14T18:35:15.271Z,9.57
2018-04-14T18:37:42.849Z,9.10
2018-04-14T18:40:10.577Z,9.40
2018-04-14T18:42:38.163Z,9.70
2018-04-14T18:45:05.843Z,9.73
2018-04-14T18:47:33.512Z,9.80
2018-04-14T18:50:01.101Z,9.60
2018-04-14T18:52:28.710Z,10.13
2018-04-14T18:54:56.360Z,10.27
2018-04-14T18:57:23.944Z,10.80
2018-04-14T18:59:51.534Z,10.23
2018-04-14T19:02:19.448Z,11.13
2018-04-14T19:04:47.098Z,10.43
2018-04-14T19:07:14.714Z,10.97
2018-04-14T19:09:42.355Z,11.20
2018-04-14T19:12:10.004Z,11.23
2018-04-14T19:14:37.595Z,11.00
2018-04-14T19:17:05.265Z,10.70
2018-04-14T19:19:32.873Z,11.60
2018-04-14T19:22:00.481Z,12.10
2018-04-14T19:24:28.224Z,12.47
2018-04-14T19:26:55.824Z,11.70
2018-04-14T19:29:23.408Z,12.33
2018-04-14T19:31:51.193Z,12.27
2018-04-14T19:34:19.581Z,12.53
2018-04-14T19:36:47.241Z,12.83
2018-04-14T19:39:15.030Z,13.40
2018-04-14T19:41:42.620Z,13.00
2018-04-14T19:44:10.219Z,15.93
2018-04-14T19:46:37.856Z,14.73
2018-04-14T19:49:05.750Z,14.73
2018-04-14T19:51:33.403Z,15.20
2018-04-14T19:54:01.120Z,15.60
2018-04-14T19:56:28.704Z,15.60
2018-04-14T19:58:56.299Z,15.13
2018-04-14T20:01:23.996Z,16.83
2018-04-14T20:03:51.737Z,16.33
2018-04-14T20:06:19.330Z,18.47
2018-04-14T20:08:47.057Z,18.50
2018-04-14T20:11:14.639Z,20.33
2018-04-14T20:13:42.296Z,19.53
2018-04-14T20:16:09.933Z,20.97
2018-04-14T20:18:37.531Z,23.07
2018-04-14T20:21:05.144Z,21.27
2018-04-14T20:23:32.921Z,22.63
2018-04-14T20:26:00.513Z,25.50
2018-04-14T20:28:28.217Z,23.80
2018-04-14T20:30:55.986Z,24.97
2018-04-14T20:33:24.360Z,25.90
2018-04-14T20:35:52.014Z,66.27
2018-04-14T20:38:19.727Z,26.13
2018-04-14T20:40:47.344Z,26.17
2018-04-14T20:43:14.998Z,27.33
2018-04-14T20:45:53.754Z,27.03
2018-04-14T20:48:21.413Z,27.60
2018-04-14T20:50:49.004Z,26.67
2018-04-14T20:53:16.648Z,27.45
2018-04-14T20:55:44.265Z,24.83
2018-04-14T20:58:11.911Z,26.47
2018-04-14T21:00:39.826Z,26.83
2018-04-14T21:03:07.421Z,26.83
2018-04-14T21:05:36.387Z,27.90
2018-04-14T21:08:04.058Z,26.47
2018-04-14T21:10:31.664Z,25.83
2018-04-14T21:12:59.332Z,26.50
2018-04-14T21:15:27.081Z,26.27
2018-04-14T21:17:57.759Z,28.40
2018-04-14T21:20:25.339Z,26.80
2018-04-14T21:22:53.872Z,38.00
2018-04-14T21:25:21.461Z,37.07
2018-04-14T21:27:49.312Z,26.77
2018-04-14T21:30:16.980Z,27.07
2018-04-14T21:32:44.568Z,26.47
2018-04-14T21:35:12.217Z,27.20
2018-04-14T21:37:39.947Z,27.97
2018-04-14T21:40:07.554Z,27.80
2018-04-14T21:42:37.299Z,28.77
2018-04-14T21:45:05.029Z,28.23
2018-04-14T21:47:32.659Z,28.67
2018-04-14T21:50:00.243Z,29.33
2018-04-14T21:52:28.033Z,29.00
2018-04-14T21:54:55.627Z,31.87
2018-04-14T21:57:23.234Z,30.90
2018-04-14T21:59:50.887Z,31.33
2018-04-14T22:02:18.548Z,31.37
2018-04-14T22:04:46.134Z,31.70
2018-04-14T22:07:13.931Z,30.93
2018-04-14T22:09:41.619Z,30.40
2018-04-14T22:12:09.308Z,29.57
2018-04-14T22:14:37.068Z,28.57
2018-04-14T22:17:04.682Z,29.47
2018-04-14T22:19:32.344Z,28.80
2018-04-14T22:22:00.173Z,28.77
2018-04-14T22:24:27.780Z,27.90
2018-04-14T22:26:55.423Z,27.90
2018-04-14T22:29:23.072Z,26.20
2018-04-14T22:31:50.671Z,27.03
2018-04-14T22:34:18.256Z,26.67
2018-04-14T22:36:45.964Z,26.63
2018-04-14T22:39:13.560Z,25.53
2018-04-14T22:41:41.217Z,25.87
2018-04-14T22:44:08.938Z,24.90
2018-04-14T22:46:36.600Z,26.17
2018-04-14T22:49:04.187Z,24.17
2018-04-14T22:51:31.833Z,24.33
2018-04-14T22:53:59.513Z,22.17
2018-04-14T22:56:27.096Z,21.47
2018-04-14T22:58:54.897Z,20.77
2018-04-14T23:01:22.479Z,21.63
2018-04-14T23:03:50.067Z,22.83
2018-04-14T23:06:17.801Z,21.03
2018-04-14T23:08:46.492Z,21.90
2018-04-14T23:11:14.093Z,22.40
2018-04-14T23:13:41.881Z,23.50
2018-04-14T23:16:09.597Z,22.40
2018-04-14T23:18:37.289Z,23.37
2018-04-14T23:21:05.025Z,23.60
2018-04-14T23:23:32.640Z,22.43
2018-04-14T23:26:00.297Z,21.13
2018-04-14T23:28:27.961Z,20.77
2018-04-14T23:30:56.452Z,20.87
2018-04-14T23:33:24.113Z,22.40
2018-04-14T23:35:51.836Z,21.40
2018-04-14T23:38:19.497Z,22.43
2018-04-14T23:40:47.085Z,21.97
2018-04-14T23:43:14.870Z,21.30
2018-04-14T23:45:42.454Z,20.87
2018-04-14T23:48:10.045Z,21.20
2018-04-14T23:50:37.680Z,22.07
2018-04-14T23:53:05.349Z,20.90
2018-04-14T23:55:32.935Z,21.07
2018-04-14T23:58:00.685Z,21.03
